Time;durP1;ratioP1;P1;durP2;ratioP2;P2;SDS_P1;SDS_P2;PMS_P1;PMS_P2;Temp;Humidity;BMP_temperature;BMP_pressure;BME280_temperature;BME280_humidity;BME280_pressure;Samples;Min_cycle;Max_cycle;Signal;HPM_P1;HPM_P2
2021/05/20 00:00:04;;;;;;;2.72;1.48;;;12.70;99.00;;;;;;5071835;28;20230;-70
2021/05/20 00:02:32;;;;;;;1.30;1.20;;;12.70;99.10;;;;;;5071849;28;20297;-70
2021/05/20 00:04:58;;;;;;;1.60;1.45;;;12.80;99.00;;;;;;5071732;28;20191;-69
2021/05/20 00:07:25;;;;;;;1.33;1.23;;;12.70;99.00;;;;;;5071471;28;20230;-70
2021/05/20 00:09:51;;;;;;;2.08;1.30;;;12.80;99.20;;;;;;5071766;28;20367;-71
2021/05/20 00:12:18;;;;;;;2.17;1.10;;;12.80;99.20;;;;;;5071864;28;20207;-70
2021/05/20 00:14:44;;;;;;;1.35;1.23;;;12.80;99.50;;;;;;5071504;28;20229;-70
2021/05/20 00:17:10;;;;;;;1.25;1.15;;;12.70;99.40;;;;;;5073528;28;20218;-70
2021/05/20 00:19:37;;;;;;;1.10;0.90;;;12.80;99.30;;;;;;5075682;28;20217;-70
2021/05/20 00:22:04;;;;;;;1.10;1.00;;;12.80;99.30;;;;;;5075184;28;20209;-70
2021/05/20 00:24:30;;;;;;;1.17;1.02;;;12.70;99.40;;;;;;5075017;28;20294;-70
2021/05/20 00:26:56;;;;;;;1.30;1.20;;;12.70;99.70;;;;;;5075301;28;20246;-71
2021/05/20 00:29:23;;;;;;;1.30;1.20;;;12.70;99.70;;;;;;5075459;28;20242;-71
2021/05/20 00:31:49;;;;;;;1.42;1.33;;;12.70;99.90;;;;;;5075051;28;20290;-70
2021/05/20 00:34:15;;;;;;;1.02;1.00;;;12.80;99.90;;;;;;5074859;28;20226;-71
2021/05/20 00:36:43;;;;;;;1.30;1.20;;;12.80;99.90;;;;;;5074644;28;20310;-70
2021/05/20 00:39:09;;;;;;;1.95;1.00;;;12.70;99.90;;;;;;5074966;28;20290;-71
2021/05/20 00:41:35;;;;;;;2.30;1.25;;;12.70;99.90;;;;;;5074937;28;20298;-71
2021/05/20 00:44:02;;;;;;;1.13;1.02;;;12.70;99.90;;;;;;5074811;28;20209;-75
2021/05/20 00:46:28;;;;;;;1.98;1.30;;;12.70;99.90;;;;;;5074641;28;20235;-73
2021/05/20 00:48:54;;;;;;;1.00;0.90;;;12.70;99.90;;;;;;5074658;28;20213;-75
2021/05/20 00:51:21;;;;;;;1.70;1.15;;;12.60;99.90;;;;;;5074583;28;20297;-74
2021/05/20 00:53:49;;;;;;;1.15;1.08;;;12.60;99.90;;;;;;5074656;28;20223;-75
2021/05/20 00:56:18;;;;;;;1.95;1.83;;;12.50;99.90;;;;;;5074241;28;20294;-76
2021/05/20 00:58:45;;;;;;;1.45;1.35;;;12.50;99.90;;;;;;5074580;28;20318;-73
2021/05/20 01:01:12;;;;;;;1.50;1.40;;;12.40;99.90;;;;;;5074643;28;20238;-70
2021/05/20 01:03:39;;;;;;;1.27;1.17;;;12.50;99.90;;;;;;5074362;28;20195;-71
2021/05/20 01:06:06;;;;;;;1.27;1.20;;;12.50;99.90;;;;;;5074023;28;20669;-72
2021/05/20 01:08:33;;;;;;;1.83;1.10;;;12.40;99.90;;;;;;5074603;28;20253;-71
2021/05/20 01:11:00;;;;;;;1.20;1.10;;;12.40;99.90;;;;;;5074529;28;20577;-72
2021/05/20 01:13:27;;;;;;;0.90;0.90;;;12.40;99.90;;;;;;5074336;28;20225;-71
2021/05/20 01:15:53;;;;;;;0.77;0.73;;;12.30;99.90;;;;;;5073948;28;20244;-72
2021/05/20 01:18:20;;;;;;;0.98;0.90;;;12.30;99.90;;;;;;5074080;28;20218;-71
2021/05/20 01:20:48;;;;;;;1.10;1.10;;;12.30;99.90;;;;;;5074433;28;20294;-72
2021/05/20 01:23:16;;;;;;;0.90;0.90;;;12.30;99.90;;;;;;5074310;28;20302;-73
2021/05/20 01:25:45;;;;;;;0.80;0.80;;;12.30;99.90;;;;;;5074150;28;20300;-73
2021/05/20 01:28:13;;;;;;;3.33;1.10;;;12.30;99.90;;;;;;5073470;28;20309;-76
2021/05/20 01:30:41;;;;;;;2.15;1.17;;;12.30;99.90;;;;;;5074338;28;20609;-73
2021/05/20 01:33:08;;;;;;;1.35;1.17;;;12.30;99.90;;;;;;5073911;28;20223;-73
2021/05/20 01:35:34;;;;;;;1.20;0.90;;;12.40;99.90;;;;;;5073985;28;21031;-76
2021/05/20 01:38:38;;;;;;;1.35;0.88;;;12.40;99.90;;;;;;5075650;28;20257;-74
2021/05/20 01:41:04;;;;;;;0.90;0.90;;;12.40;99.90;;;;;;5075686;28;20202;-73
2021/05/20 01:43:31;;;;;;;0.70;0.70;;;12.40;99.90;;;;;;5075820;28;20282;-73
2021/05/20 01:45:58;;;;;;;1.13;0.93;;;12.40;99.90;;;;;;5075056;28;20205;-73
2021/05/20 01:48:25;;;;;;;1.10;0.90;;;12.20;99.90;;;;;;5075320;28;20225;-73
2021/05/20 01:50:52;;;;;;;1.30;1.20;;;12.10;99.90;;;;;;5075302;28;20304;-73
2021/05/20 01:53:19;;;;;;;1.10;1.00;;;12.20;99.90;;;;;;5074805;28;20232;-73
2021/05/20 01:55:49;;;;;;;1.45;1.00;;;12.20;99.90;;;;;;5075047;28;20294;-73
2021/05/20 01:58:15;;;;;;;1.27;1.17;;;12.20;99.90;;;;;;5074752;28;20635;-73
2021/05/20 02:00:42;;;;;;;1.30;1.00;;;12.20;99.90;;;;;;5074963;28;20199;-73
2021/05/20 02:03:08;;;;;;;1.30;1.05;;;12.10;99.90;;;;;;5075026;28;20611;-73
2021/05/20 02:05:35;;;;;;;1.20;1.10;;;12.10;99.90;;;;;;5074821;28;20198;-74
2021/05/20 02:08:01;;;;;;;0.90;0.90;;;12.10;99.90;;;;;;5074371;28;20255;-74
2021/05/20 02:10:28;;;;;;;1.17;1.05;;;11.90;99.90;;;;;;5074630;28;20313;-74
2021/05/20 02:12:55;;;;;;;0.90;0.90;;;11.70;99.90;;;;;;5074516;28;20198;-74
2021/05/20 02:15:21;;;;;;;1.00;0.95;;;11.60;99.90;;;;;;5074534;28;20203;-74
2021/05/20 02:17:48;;;;;;;3.95;1.00;;;11.70;99.90;;;;;;5074841;28;20258;-73
2021/05/20 02:20:15;;;;;;;2.35;1.15;;;11.80;99.90;;;;;;5074749;28;20205;-73
2021/05/20 02:22:41;;;;;;;2.05;1.15;;;11.90;99.90;;;;;;5074726;28;20209;-74
2021/05/20 02:25:09;;;;;;;1.38;1.10;;;11.90;99.90;;;;;;5074756;28;20730;-74
2021/05/20 02:27:36;;;;;;;1.25;1.15;;;12.00;99.90;;;;;;5074240;28;20309;-73
2021/05/20 02:30:03;;;;;;;1.33;1.05;;;12.00;99.90;;;;;;5074226;28;20299;-73
2021/05/20 02:32:30;;;;;;;0.75;0.75;;;12.00;99.90;;;;;;5074573;28;20293;-73
2021/05/20 02:34:56;;;;;;;2.75;1.30;;;11.90;99.90;;;;;;5074003;28;20389;-74
2021/05/20 02:37:22;;;;;;;1.13;1.13;;;11.90;99.90;;;;;;5073876;28;20313;-73
2021/05/20 02:39:49;;;;;;;1.30;1.00;;;11.80;99.90;;;;;;5074846;28;20641;-73
2021/05/20 02:42:15;;;;;;;1.02;1.02;;;11.80;99.90;;;;;;5074201;28;20360;-73
2021/05/20 02:44:42;;;;;;;1.45;1.35;;;11.80;99.90;;;;;;5074241;28;20285;-74
2021/05/20 02:47:09;;;;;;;1.40;1.20;;;11.80;99.90;;;;;;5074118;28;20228;-73
2021/05/20 02:49:35;;;;;;;1.92;1.10;;;11.90;99.90;;;;;;5074564;28;20293;-74
2021/05/20 02:52:01;;;;;;;1.50;1.40;;;11.80;99.90;;;;;;5074303;28;20297;-73
2021/05/20 02:54:28;;;;;;;1.20;1.20;;;11.80;99.90;;;;;;5074120;28;20226;-73
2021/05/20 02:56:54;;;;;;;1.20;1.10;;;11.80;99.90;;;;;;5073884;28;20321;-74
2021/05/20 02:59:20;;;;;;;1.20;1.10;;;11.80;99.90;;;;;;5074089;28;20609;-74
2021/05/20 03:01:48;;;;;;;1.30;1.10;;;11.80;99.90;;;;;;5073941;28;20649;-73
2021/05/20 03:04:14;;;;;;;1.33;1.20;;;11.80;99.90;;;;;;5074156;28;20202;-73
2021/05/20 03:06:41;;;;;;;1.50;1.17;;;11.80;99.90;;;;;;5073921;28;20252;-73
2021/05/20 03:09:09;;;;;;;1.10;1.10;;;11.80;99.90;;;;;;5073469;28;20203;-73
2021/05/20 03:11:35;;;;;;;1.40;1.30;;;11.90;99.90;;;;;;5074188;28;20202;-73
2021/05/20 03:14:03;;;;;;;1.38;1.27;;;11.90;99.90;;;;;;5073826;28;20226;-73
2021/05/20 03:16:29;;;;;;;1.35;1.23;;;11.90;99.90;;;;;;5073324;28;20223;-73
2021/05/20 03:18:56;;;;;;;1.23;1.13;;;11.80;99.90;;;;;;5073968;28;20293;-73
2021/05/20 03:21:23;;;;;;;1.17;1.10;;;11.80;99.90;;;;;;5074047;28;20210;-73
2021/05/20 03:23:49;;;;;;;1.40;1.25;;;11.80;99.90;;;;;;5073398;28;20201;-73
2021/05/20 03:26:15;;;;;;;1.27;1.00;;;11.70;99.90;;;;;;5073448;28;20284;-73
2021/05/20 03:28:42;;;;;;;1.15;1.02;;;11.60;99.90;;;;;;5073649;28;20724;-73
2021/05/20 03:31:08;;;;;;;1.55;1.30;;;11.60;99.90;;;;;;5073711;28;20241;-73
2021/05/20 03:33:34;;;;;;;1.70;1.25;;;11.60;99.90;;;;;;5073898;28;20305;-73
2021/05/20 03:36:01;;;;;;;1.55;0.90;;;11.50;99.90;;;;;;5073112;28;20230;-73
2021/05/20 03:38:28;;;;;;;1.65;1.25;;;11.50;99.90;;;;;;5073507;28;20227;-73
2021/05/20 03:40:54;;;;;;;1.20;0.98;;;11.60;99.90;;;;;;5073581;28;20199;-73
2021/05/20 03:43:20;;;;;;;1.05;1.00;;;11.60;99.90;;;;;;5073802;28;20237;-73
2021/05/20 03:45:46;;;;;;;2.15;1.13;;;11.60;99.90;;;;;;5073411;28;20289;-73
2021/05/20 03:48:13;;;;;;;1.30;1.20;;;11.60;99.90;;;;;;5074095;28;20768;-73
2021/05/20 03:50:40;;;;;;;1.52;1.42;;;11.60;99.90;;;;;;5073314;28;20209;-73
2021/05/20 03:53:07;;;;;;;1.30;1.20;;;11.60;99.90;;;;;;5077132;28;20217;-73
2021/05/20 03:55:33;;;;;;;1.02;0.90;;;11.60;99.90;;;;;;5077180;28;20299;-73
2021/05/20 03:58:00;;;;;;;1.65;1.20;;;11.60;99.90;;;;;;5077575;28;20222;-73
2021/05/20 04:00:26;;;;;;;2.60;1.10;;;11.60;99.90;;;;;;5077679;28;20668;-73
2021/05/20 04:02:53;;;;;;;1.40;1.30;;;11.60;99.90;;;;;;5077549;28;20199;-73
2021/05/20 04:05:19;;;;;;;1.42;1.23;;;11.50;99.90;;;;;;5076878;28;20301;-74
2021/05/20 04:07:45;;;;;;;1.02;1.02;;;11.50;99.90;;;;;;5077169;28;20295;-73
2021/05/20 04:10:13;;;;;;;1.33;1.23;;;11.40;99.90;;;;;;5076915;28;20198;-73
2021/05/20 04:12:40;;;;;;;1.55;1.00;;;11.40;99.90;;;;;;5077188;28;20202;-73
2021/05/20 04:15:07;;;;;;;1.83;1.30;;;11.40;99.90;;;;;;5076992;28;20276;-73
2021/05/20 04:17:34;;;;;;;1.10;1.00;;;11.50;99.90;;;;;;5076536;28;20314;-73
2021/05/20 04:20:00;;;;;;;1.65;1.20;;;11.50;99.90;;;;;;5077068;28;20246;-73
2021/05/20 04:22:26;;;;;;;1.50;1.30;;;11.50;99.90;;;;;;5076645;28;20209;-73
2021/05/20 04:24:53;;;;;;;2.50;1.20;;;11.60;99.90;;;;;;5076641;28;20295;-73
2021/05/20 04:27:20;;;;;;;1.75;1.50;;;11.60;99.90;;;;;;5076733;28;20223;-73
2021/05/20 04:29:46;;;;;;;1.10;1.00;;;11.60;99.90;;;;;;5077274;28;20297;-73
2021/05/20 04:32:12;;;;;;;1.00;1.00;;;11.60;99.90;;;;;;5077001;28;20564;-73
2021/05/20 04:34:39;;;;;;;1.10;1.00;;;11.60;99.90;;;;;;5076229;28;20314;-73
2021/05/20 04:37:07;;;;;;;1.60;1.23;;;11.60;99.90;;;;;;5076526;28;20218;-73
2021/05/20 04:39:34;;;;;;;0.80;0.80;;;11.70;99.90;;;;;;5076687;28;20238;-73
2021/05/20 04:42:00;;;;;;;1.10;1.00;;;11.70;99.90;;;;;;5076583;28;20737;-73
2021/05/20 04:44:28;;;;;;;0.88;0.88;;;11.70;99.90;;;;;;5076769;28;20195;-73
2021/05/20 04:46:54;;;;;;;1.00;1.00;;;11.80;99.90;;;;;;5075946;28;20700;-73
2021/05/20 04:49:20;;;;;;;1.10;1.00;;;11.70;99.90;;;;;;5076390;28;20614;-73
2021/05/20 04:51:46;;;;;;;1.00;0.93;;;11.70;99.90;;;;;;5076187;28;20213;-73
2021/05/20 04:54:13;;;;;;;0.80;0.80;;;11.70;99.90;;;;;;5076142;28;20227;-73
2021/05/20 04:56:40;;;;;;;1.58;0.90;;;11.70;99.90;;;;;;5075699;28;20723;-73
2021/05/20 04:59:06;;;;;;;0.70;0.70;;;11.70;99.90;;;;;;5076926;28;20268;-73
2021/05/20 05:01:33;;;;;;;2.35;1.10;;;11.80;99.90;;;;;;5076433;28;20206;-73
2021/05/20 05:04:00;;;;;;;0.88;0.88;;;11.90;99.90;;;;;;5074859;28;20244;-73
2021/05/20 05:06:27;;;;;;;1.77;1.10;;;12.00;99.90;;;;;;5075789;28;20231;-73
2021/05/20 05:08:53;;;;;;;1.17;1.08;;;12.10;99.90;;;;;;5076363;28;20561;-73
2021/05/20 05:11:20;;;;;;;1.25;1.20;;;12.10;99.90;;;;;;5076111;28;20203;-73
2021/05/20 05:13:46;;;;;;;1.00;1.00;;;12.10;99.90;;;;;;5076147;28;20313;-73
2021/05/20 05:16:12;;;;;;;1.25;1.10;;;12.20;99.90;;;;;;5075474;28;20297;-73
2021/05/20 05:18:40;;;;;;;1.25;1.15;;;12.30;99.90;;;;;;5075813;28;20299;-73
2021/05/20 05:21:06;;;;;;;1.60;1.00;;;12.30;99.90;;;;;;5075883;28;20202;-73
2021/05/20 05:23:32;;;;;;;1.33;1.23;;;12.40;99.90;;;;;;5075968;28;20226;-73
2021/05/20 05:25:59;;;;;;;1.20;1.20;;;12.30;99.90;;;;;;5075448;28;20202;-73
2021/05/20 05:28:25;;;;;;;0.80;0.80;;;12.30;99.90;;;;;;5076115;28;20582;-73
2021/05/20 05:30:51;;;;;;;1.30;1.15;;;12.30;99.90;;;;;;5075532;28;20302;-73
2021/05/20 05:33:21;;;;;;;1.85;1.10;;;12.40;99.90;;;;;;5075334;28;20233;-73
2021/05/20 05:35:48;;;;;;;1.55;1.20;;;12.40;99.90;;;;;;5075304;28;20203;-74
2021/05/20 05:38:14;;;;;;;1.00;1.00;;;12.30;99.90;;;;;;5075820;28;20225;-73
2021/05/20 05:40:41;;;;;;;0.93;0.90;;;12.30;99.90;;;;;;5075657;28;20638;-73
2021/05/20 05:43:07;;;;;;;1.40;1.30;;;12.30;99.90;;;;;;5075717;28;20309;-73
2021/05/20 05:45:34;;;;;;;1.33;1.23;;;12.40;99.90;;;;;;5075068;28;20294;-73
2021/05/20 05:48:00;;;;;;;1.20;1.10;;;12.30;99.90;;;;;;5075408;28;20314;-73
2021/05/20 05:50:27;;;;;;;1.15;1.05;;;12.30;99.90;;;;;;5075336;28;20252;-73
2021/05/20 05:52:54;;;;;;;1.10;1.00;;;12.40;99.90;;;;;;5074830;28;20572;-73
2021/05/20 05:55:21;;;;;;;2.42;1.00;;;12.40;99.90;;;;;;5075196;28;20613;-73
2021/05/20 05:57:47;;;;;;;1.23;0.98;;;12.50;99.90;;;;;;5075322;28;20291;-73
2021/05/20 06:00:14;;;;;;;1.30;1.10;;;12.50;99.90;;;;;;5074779;28;20234;-73
2021/05/20 06:02:44;;;;;;;2.90;1.50;;;12.60;99.90;;;;;;5074774;28;20202;-73
2021/05/20 06:05:12;;;;;;;1.60;1.50;;;12.50;99.90;;;;;;5075083;28;20664;-73
2021/05/20 06:07:38;;;;;;;1.20;1.13;;;12.50;99.90;;;;;;5074336;28;20272;-73
2021/05/20 06:10:06;;;;;;;1.70;1.60;;;12.50;99.90;;;;;;5074769;28;20287;-73
2021/05/20 06:12:33;;;;;;;1.20;1.20;;;12.50;99.90;;;;;;5074943;28;20218;-73
2021/05/20 06:14:59;;;;;;;1.33;1.23;;;12.50;99.90;;;;;;5074394;28;20262;-73
2021/05/20 06:17:25;;;;;;;1.45;1.20;;;12.70;99.90;;;;;;5074643;28;20227;-73
2021/05/20 06:19:52;;;;;;;1.30;1.17;;;12.70;99.90;;;;;;5074679;28;20317;-73
2021/05/20 06:22:18;;;;;;;1.50;1.40;;;12.80;99.90;;;;;;5074748;28;20723;-73
2021/05/20 06:24:44;;;;;;;3.17;1.30;;;12.80;99.90;;;;;;5074780;28;20198;-73
2021/05/20 06:27:11;;;;;;;1.08;1.08;;;12.90;99.90;;;;;;5074132;28;20218;-73
2021/05/20 06:29:38;;;;;;;1.48;1.33;;;12.90;99.90;;;;;;5074523;28;20297;-73
2021/05/20 06:32:05;;;;;;;4.55;2.22;;;13.00;99.90;;;;;;5074508;28;20625;-73
2021/05/20 06:34:31;;;;;;;1.45;1.15;;;12.90;99.90;;;;;;5074472;28;20225;-73
2021/05/20 06:36:59;;;;;;;1.50;1.40;;;12.80;99.90;;;;;;5073813;28;20230;-73
2021/05/20 06:39:28;;;;;;;1.63;1.50;;;12.70;99.90;;;;;;5074840;28;20252;-73
2021/05/20 06:41:55;;;;;;;1.52;1.35;;;12.60;99.90;;;;;;5073869;28;20206;-73
2021/05/20 06:44:22;;;;;;;1.52;1.42;;;12.70;99.90;;;;;;5074510;28;20649;-73
2021/05/20 06:46:48;;;;;;;1.50;1.40;;;12.70;99.90;;;;;;5074067;28;20371;-73
2021/05/20 06:49:15;;;;;;;3.65;1.58;;;12.70;99.90;;;;;;5074522;28;20256;-75
2021/05/20 06:51:41;;;;;;;3.22;1.30;;;12.80;99.90;;;;;;5082216;28;20293;-75
2021/05/20 06:54:07;;;;;;;1.63;1.40;;;12.90;99.90;;;;;;5072692;28;20317;-75
2021/05/20 06:56:34;;;;;;;1.60;1.50;;;13.00;99.90;;;;;;5072748;28;20226;-77
2021/05/20 07:01:46;;;;;;;1.50;1.30;;;13.40;99.90;;;;;;5072737;28;20221;-77
2021/05/20 07:04:14;;;;;;;1.40;1.30;;;13.60;99.90;;;;;;5072233;28;20198;-76
2021/05/20 07:06:40;;;;;;;1.60;1.33;;;13.90;99.90;;;;;;5072248;28;20283;-77
2021/05/20 07:09:07;;;;;;;1.48;1.38;;;14.10;99.90;;;;;;5072695;28;20302;-76
2021/05/20 07:11:33;;;;;;;1.70;1.60;;;14.20;99.90;;;;;;5072703;28;20203;-78
2021/05/20 07:13:59;;;;;;;1.42;1.33;;;14.10;99.90;;;;;;5074465;28;20222;-76
2021/05/20 07:16:26;;;;;;;1.45;1.27;;;14.10;99.90;;;;;;5072451;28;20577;-76
2021/05/20 07:18:54;;;;;;;1.30;1.30;;;14.40;99.90;;;;;;5072418;28;20857;-77
2021/05/20 07:21:20;;;;;;;4.35;1.75;;;14.40;99.90;;;;;;5072146;28;20217;-76
2021/05/20 07:23:46;;;;;;;1.88;1.77;;;14.40;99.90;;;;;;5072143;28;20294;-77
2021/05/20 07:26:12;;;;;;;1.25;1.20;;;14.40;99.90;;;;;;5071393;28;20289;-77
2021/05/20 07:28:39;;;;;;;1.52;1.42;;;14.20;99.90;;;;;;5072353;28;20759;-77
2021/05/20 07:31:05;;;;;;;1.65;1.55;;;14.00;99.90;;;;;;5072432;28;20664;-77
2021/05/20 07:33:32;;;;;;;1.48;1.38;;;13.90;99.90;;;;;;5072418;28;20234;-77
2021/05/20 07:35:59;;;;;;;1.60;1.50;;;13.80;99.90;;;;;;5073243;28;20206;-77
2021/05/20 07:38:25;;;;;;;2.13;1.92;;;13.70;99.90;;;;;;5073168;28;20313;-77
2021/05/20 07:40:52;;;;;;;1.83;1.52;;;13.80;99.90;;;;;;5074032;28;20620;-77
2021/05/20 07:43:18;;;;;;;1.80;1.67;;;13.90;99.90;;;;;;5073878;28;20669;-76
2021/05/20 07:45:46;;;;;;;1.33;1.23;;;14.10;99.90;;;;;;5073836;28;20299;-76
2021/05/20 07:48:12;;;;;;;1.50;1.40;;;14.20;99.90;;;;;;5073264;28;20223;-76
2021/05/20 07:50:38;;;;;;;1.50;1.40;;;14.30;99.90;;;;;;5073544;28;20203;-76
2021/05/20 07:53:06;;;;;;;1.50;1.17;;;14.50;99.90;;;;;;5073570;28;20210;-77
2021/05/20 07:55:32;;;;;;;1.50;1.40;;;14.60;99.90;;;;;;5073330;28;20285;-76
2021/05/20 07:57:59;;;;;;;1.20;1.05;;;14.70;99.90;;;;;;5073606;28;20223;-76
2021/05/20 08:00:26;;;;;;;1.38;1.30;;;14.80;99.90;;;;;;5073717;28;20298;-76
2021/05/20 08:02:58;;;;;;;1.25;1.15;;;14.70;99.90;;;;;;5073200;28;20207;-76
2021/05/20 08:05:29;;;;;;;1.38;1.27;;;14.80;99.80;;;;;;5073284;28;20249;-75
2021/05/20 08:08:00;;;;;;;2.00;1.90;;;14.50;99.60;;;;;;5073704;28;20619;-76
2021/05/20 08:13:08;;;;;;;1.60;1.00;;;14.30;99.90;;;;;;5070867;28;20522;-76
2021/05/20 08:15:34;;;;;;;1.20;1.00;;;14.40;99.90;;;;;;5072962;28;20251;-76
2021/05/20 08:18:01;;;;;;;1.00;1.00;;;14.30;99.90;;;;;;5073600;28;20281;-76
2021/05/20 08:20:28;;;;;;;1.17;1.08;;;14.30;99.80;;;;;;5073259;28;20388;-76
2021/05/20 08:22:54;;;;;;;1.00;1.00;;;14.10;99.90;;;;;;5073461;28;20286;-76
2021/05/20 08:25:20;;;;;;;1.30;1.20;;;14.00;99.90;;;;;;5073366;28;20289;-75
2021/05/20 08:27:47;;;;;;;1.98;1.20;;;14.00;99.90;;;;;;5073052;28;20313;-76
2021/05/20 08:30:15;;;;;;;1.40;1.30;;;14.10;99.90;;;;;;5073080;28;20261;-76
2021/05/20 08:32:42;;;;;;;2.70;1.10;;;14.10;99.90;;;;;;5073134;28;20245;-76
2021/05/20 08:35:09;;;;;;;1.20;1.10;;;14.20;99.90;;;;;;5073157;28;20233;-76
2021/05/20 08:37:38;;;;;;;1.20;1.08;;;14.10;99.90;;;;;;5073847;28;20258;-76
2021/05/20 08:40:06;;;;;;;1.10;1.10;;;14.10;99.90;;;;;;5077273;28;20202;-76
2021/05/20 08:42:33;;;;;;;1.30;1.20;;;14.10;99.90;;;;;;5076817;28;20211;-76
2021/05/20 08:45:09;;;;;;;1.45;1.35;;;14.20;99.90;;;;;;5076833;28;20229;-76
2021/05/20 08:47:35;;;;;;;1.38;1.27;;;14.60;99.90;;;;;;5076715;28;20225;-76
2021/05/20 08:50:02;;;;;;;1.10;1.10;;;15.00;99.90;;;;;;5076684;28;20299;-76
2021/05/20 08:52:28;;;;;;;1.10;1.10;;;15.40;99.50;;;;;;5076555;28;20251;-76
2021/05/20 08:54:55;;;;;;;1.30;1.20;;;15.30;98.60;;;;;;5076678;28;20277;-76
2021/05/20 08:57:23;;;;;;;1.50;1.10;;;14.80;97.90;;;;;;5076213;28;20273;-76
2021/05/20 08:59:50;;;;;;;1.10;1.08;;;14.70;99.80;;;;;;5076772;28;20309;-76
2021/05/20 09:02:25;;;;;;;1.52;1.42;;;14.80;99.00;;;;;;5076437;28;20208;-76
2021/05/20 09:04:59;;;;;;;1.15;1.15;;;15.20;99.00;;;;;;5076158;28;20292;-76
2021/05/20 09:07:31;;;;;;;1.27;1.17;;;15.90;97.40;;;;;;5075915;28;20220;-76
2021/05/20 09:10:08;;;;;;;1.13;1.10;;;16.30;96.50;;;;;;5076154;28;20616;-76
2021/05/20 09:12:35;;;;;;;1.83;0.97;;;18.40;93.10;;;;;;5076180;28;20208;-77
2021/05/20 09:15:01;;;;;;;1.13;1.03;;;20.70;84.40;;;;;;5075932;28;20565;-77
2021/05/20 09:17:29;;;;;;;4.83;1.40;;;23.00;72.20;;;;;;5075693;28;20517;-77
2021/05/20 09:19:59;;;;;;;1.30;1.20;;;25.20;58.30;;;;;;5075498;28;20453;-77
2021/05/20 09:22:26;;;;;;;1.50;1.17;;;26.00;54.70;;;;;;5075802;28;20449;-77
2021/05/20 09:24:54;;;;;;;1.10;1.10;;;25.50;51.60;;;;;;5075754;28;20918;-77
2021/05/20 09:27:30;;;;;;;0.80;0.80;;;25.40;54.30;;;;;;5075355;28;20558;-77
2021/05/20 09:30:24;;;;;;;1.00;1.00;;;24.50;51.50;;;;;;5076242;28;20525;-77
2021/05/20 09:32:53;;;;;;;1.10;1.10;;;23.00;53.70;;;;;;5076349;28;20942;-77
2021/05/20 09:35:21;;;;;;;1.07;1.07;;;21.40;54.60;;;;;;5075587;28;20519;-76
2021/05/20 09:37:50;;;;;;;1.40;1.30;;;19.90;60.20;;;;;;5075630;28;21024;-76
2021/05/20 09:40:19;;;;;;;4.90;1.35;;;18.80;65.50;;;;;;5075891;28;20659;-76
2021/05/20 09:42:47;;;;;;;1.10;1.00;;;17.90;70.70;;;;;;5075366;28;20275;-76
2021/05/20 09:45:16;;;;;;;1.20;1.20;;;16.90;74.50;;;;;;5075362;28;20330;-76
2021/05/20 09:47:43;;;;;;;1.10;1.10;;;16.40;78.80;;;;;;5075028;28;20699;-76
2021/05/20 09:50:12;;;;;;;1.67;1.08;;;16.10;83.60;;;;;;5074913;28;20661;-76
2021/05/20 09:52:39;;;;;;;1.00;1.00;;;15.70;83.50;;;;;;5075207;28;20578;-76
2021/05/20 09:55:24;;;;;;;1.63;1.52;;;15.10;89.10;;;;;;5075571;28;20319;-76
2021/05/20 09:57:51;;;;;;;3.85;1.00;;;15.30;91.20;;;;;;5075291;28;20246;-76
2021/05/20 10:00:21;;;;;;;1.00;0.90;;;15.30;91.70;;;;;;5075199;28;20648;-76
2021/05/20 10:02:48;;;;;;;1.00;1.00;;;15.30;91.20;;;;;;5075251;28;20229;-76
2021/05/20 10:05:24;;;;;;;1.00;0.90;;;15.40;91.20;;;;;;5075227;28;20205;-76
2021/05/20 10:07:52;;;;;;;0.95;0.95;;;15.60;90.40;;;;;;5075288;28;20600;-76
2021/05/20 10:10:19;;;;;;;0.80;0.80;;;16.00;90.30;;;;;;5074923;28;20212;-76
2021/05/20 10:12:46;;;;;;;1.08;1.08;;;16.20;89.30;;;;;;5075048;28;20202;-77
2021/05/20 10:15:14;;;;;;;1.20;1.13;;;16.40;90.20;;;;;;5075013;28;20707;-76
2021/05/20 10:17:41;;;;;;;1.52;1.00;;;16.50;86.10;;;;;;5074260;28;20379;-76
2021/05/20 10:20:10;;;;;;;0.90;0.90;;;16.50;84.10;;;;;;5075294;28;20214;-76
2021/05/20 10:22:38;;;;;;;1.33;1.23;;;16.30;86.30;;;;;;5074495;28;20263;-76
2021/05/20 10:25:06;;;;;;;1.65;1.40;;;17.30;90.30;;;;;;5074687;28;20249;-76
2021/05/20 10:27:33;;;;;;;1.30;1.20;;;18.60;84.20;;;;;;5074323;28;20227;-76
2021/05/20 10:30:01;;;;;;;1.10;0.93;;;19.90;75.10;;;;;;5074324;28;20852;-77
2021/05/20 10:32:28;;;;;;;1.13;1.10;;;21.40;71.40;;;;;;5074388;28;21054;-77
2021/05/20 10:35:01;;;;;;;1.30;1.20;;;22.80;66.60;;;;;;5074215;28;20478;-77
2021/05/20 10:37:36;;;;;;;1.60;1.07;;;23.40;60.00;;;;;;5074206;28;20658;-77
2021/05/20 10:40:04;;;;;;;0.70;0.60;;;24.50;57.80;;;;;;5075209;28;20445;-77
2021/05/20 10:42:36;;;;;;;0.83;0.83;;;25.10;52.10;;;;;;5074436;28;20456;-77
2021/05/20 10:45:18;;;;;;;1.17;0.70;;;24.30;48.30;;;;;;5074433;28;20449;-77
2021/05/20 10:48:18;;;;;;;0.90;0.77;;;23.40;50.70;;;;;;5074247;28;20829;-77
2021/05/20 10:51:13;;;;;;;0.70;0.70;;;22.60;51.90;;;;;;5074517;28;20437;-77
2021/05/20 10:54:06;;;;;;;0.70;0.70;;;22.20;53.60;;;;;;5074102;28;20456;-77
2021/05/20 10:56:54;;;;;;;0.80;0.80;;;21.00;56.10;;;;;;5073855;28;20862;-76
2021/05/20 10:59:44;;;;;;;0.70;0.70;;;20.10;56.80;;;;;;5074330;28;20456;-77
2021/05/20 11:02:37;;;;;;;1.00;1.00;;;19.40;57.80;;;;;;5073046;28;20934;-77
2021/05/20 11:05:05;;;;;;;0.95;0.90;;;18.90;61.50;;;;;;5074099;28;20202;-76
2021/05/20 11:07:32;;;;;;;0.70;0.70;;;19.10;61.60;;;;;;5073407;28;20226;-76
2021/05/20 11:10:10;;;;;;;0.80;0.80;;;19.00;61.10;;;;;;5074545;28;20206;-77
2021/05/20 11:12:58;;;;;;;0.88;0.88;;;18.90;61.90;;;;;;5073873;28;20209;-76
2021/05/20 11:15:24;;;;;;;1.00;0.90;;;18.40;60.60;;;;;;5073824;28;20234;-76
2021/05/20 11:17:51;;;;;;;1.10;1.00;;;17.70;66.40;;;;;;5074143;28;20233;-76
2021/05/20 11:20:45;;;;;;;0.80;0.80;;;17.40;68.10;;;;;;5074423;28;20210;-76
2021/05/20 11:23:31;;;;;;;0.90;0.90;;;17.20;70.20;;;;;;5073823;28;20240;-76
2021/05/20 11:26:12;;;;;;;1.88;1.25;;;17.00;70.40;;;;;;5073428;28;20675;-76
2021/05/20 11:28:45;;;;;;;1.15;1.10;;;16.90;73.30;;;;;;5073796;28;20635;-76
2021/05/20 11:31:11;;;;;;;1.10;1.00;;;16.80;75.30;;;;;;5074195;28;20224;-76
2021/05/20 11:33:48;;;;;;;1.15;1.10;;;16.60;71.70;;;;;;5073774;28;20305;-77
2021/05/20 11:36:14;;;;;;;0.90;0.90;;;16.40;74.30;;;;;;5073287;28;20200;-76
2021/05/20 11:38:59;;;;;;;1.17;1.08;;;16.30;75.40;;;;;;5074060;28;20210;-76
2021/05/20 11:41:27;;;;;;;0.70;0.70;;;16.50;75.70;;;;;;5074020;28;20212;-76
2021/05/20 11:44:06;;;;;;;1.20;1.10;;;16.40;73.00;;;;;;5073699;28;20300;-76
2021/05/20 11:46:34;;;;;;;0.80;0.80;;;16.50;75.80;;;;;;5073548;28;20229;-76
2021/05/20 11:49:05;;;;;;;1.10;1.10;;;16.60;75.80;;;;;;5073903;28;20233;-77
2021/05/20 11:51:43;;;;;;;2.15;1.50;;;16.50;76.30;;;;;;5074007;28;20293;-76
2021/05/20 11:54:13;;;;;;;1.55;0.90;;;16.60;77.70;;;;;;5073301;28;20668;-77
2021/05/20 11:56:40;;;;;;;0.70;0.70;;;16.70;77.00;;;;;;5073603;28;20219;-76
2021/05/20 11:59:08;;;;;;;1.00;1.00;;;17.00;77.90;;;;;;5073560;28;20202;-76
2021/05/20 12:01:35;;;;;;;3.28;1.00;;;17.40;72.60;;;;;;5073639;28;20290;-77
2021/05/20 12:04:02;;;;;;;0.90;0.90;;;17.40;72.60;;;;;;5073705;28;20289;-77
2021/05/20 12:06:29;;;;;;;0.88;0.77;;;17.60;73.80;;;;;;5072937;28;20692;-76
2021/05/20 12:09:06;;;;;;;0.90;0.90;;;17.90;71.90;;;;;;5073502;28;20213;-77
2021/05/20 12:11:32;;;;;;;2.90;0.90;;;18.20;72.70;;;;;;5073370;28;20289;-77
2021/05/20 12:13:58;;;;;;;0.70;0.70;;;18.60;70.50;;;;;;5076968;28;20650;-77
2021/05/20 12:16:32;;;;;;;1.40;1.30;;;18.90;69.10;;;;;;5076699;28;20202;-76
2021/05/20 12:18:58;;;;;;;0.98;0.90;;;18.90;64.30;;;;;;5077331;28;20199;-76
2021/05/20 12:21:25;;;;;;;0.60;0.60;;;18.90;67.50;;;;;;5076789;28;20294;-76
2021/05/20 12:23:56;;;;;;;1.00;1.00;;;19.10;62.00;;;;;;5076981;28;20606;-76
2021/05/20 12:26:29;;;;;;;0.63;0.63;;;19.40;60.00;;;;;;5076493;28;20493;-76
2021/05/20 12:28:57;;;;;;;0.60;0.53;;;19.40;59.50;;;;;;5077201;28;20433;-76
2021/05/20 12:31:23;;;;;;;1.07;1.00;;;19.40;58.50;;;;;;5077188;28;20867;-77
2021/05/20 12:33:50;;;;;;;0.60;0.60;;;19.30;57.30;;;;;;5076857;28;20491;-77
2021/05/20 12:36:30;;;;;;;0.70;0.70;;;18.80;57.40;;;;;;5076585;28;20329;-76
2021/05/20 12:38:56;;;;;;;0.70;0.68;;;18.70;60.20;;;;;;5076672;28;20202;-76
2021/05/20 12:41:34;;;;;;;0.80;0.80;;;18.60;62.80;;;;;;5077109;28;20203;-76
2021/05/20 12:44:13;;;;;;;0.40;0.40;;;18.50;60.20;;;;;;5077020;28;20642;-76
2021/05/20 12:46:40;;;;;;;0.70;0.70;;;18.30;59.90;;;;;;5076227;28;20223;-76
2021/05/20 12:49:07;;;;;;;0.77;0.77;;;18.20;61.80;;;;;;5077041;28;20211;-76
2021/05/20 12:51:34;;;;;;;1.30;0.80;;;18.00;61.10;;;;;;5076486;28;20260;-76
2021/05/20 12:54:02;;;;;;;0.80;0.80;;;17.90;62.60;;;;;;5076853;28;20242;-77
2021/05/20 12:56:31;;;;;;;0.50;0.50;;;17.40;63.00;;;;;;5076042;28;20645;-76
2021/05/20 12:59:00;;;;;;;0.95;0.90;;;17.40;65.50;;;;;;5076317;28;20449;-76